createdAt,value
2019-03-18T00:00:04.747Z,91.00
2019-03-18T00:02:31.048Z,90.70
2019-03-18T00:04:57.326Z,90.80
2019-03-18T00:07:23.592Z,90.80
2019-03-18T00:09:49.874Z,90.50
2019-03-18T00:12:17.243Z,90.30
2019-03-18T00:14:43.518Z,90.40
2019-03-18T00:17:09.785Z,90.50
2019-03-18T00:19:36.035Z,90.20
2019-03-18T00:22:02.331Z,90.20
2019-03-18T00:24:28.747Z,90.30
2019-03-18T00:26:55.062Z,90.40
2019-03-18T00:29:24.478Z,90.40
2019-03-18T00:31:50.800Z,90.00
2019-03-18T00:34:17.040Z,90.20
2019-03-18T00:36:43.297Z,90.30
2019-03-18T00:39:09.584Z,90.30
2019-03-18T00:41:36.936Z,90.40
2019-03-18T00:44:03.198Z,90.50
2019-03-18T00:46:32.523Z,91.00
2019-03-18T00:48:58.800Z,90.80
2019-03-18T00:51:25.059Z,90.60
2019-03-18T00:53:51.326Z,90.40
2019-03-18T00:56:17.606Z,90.40
2019-03-18T00:58:43.899Z,90.50
2019-03-18T01:01:10.264Z,90.30
2019-03-18T01:03:36.522Z,90.70
2019-03-18T01:06:05.964Z,90.50
2019-03-18T01:08:32.222Z,90.60
2019-03-18T01:10:58.473Z,90.70
2019-03-18T01:13:24.867Z,90.80
2019-03-18T01:15:51.124Z,90.90
2019-03-18T01:18:19.402Z,91.10
2019-03-18T01:20:45.679Z,90.70
2019-03-18T01:23:11.960Z,91.20
2019-03-18T01:25:38.271Z,91.20
2019-03-18T01:28:04.549Z,91.20
2019-03-18T01:30:30.842Z,91.40
2019-03-18T01:32:57.096Z,91.40
2019-03-18T01:35:23.393Z,91.70
2019-03-18T01:37:49.711Z,91.50
2019-03-18T01:40:15.962Z,91.30
2019-03-18T01:42:42.268Z,91.00
2019-03-18T01:45:09.335Z,90.80
2019-03-18T01:47:35.597Z,90.80
2019-03-18T01:50:02.073Z,90.90
2019-03-18T01:52:28.290Z,90.90
2019-03-18T01:54:54.591Z,90.90
2019-03-18T01:57:24.284Z,90.90
2019-03-18T01:59:50.561Z,90.80
2019-03-18T02:02:16.903Z,91.30
2019-03-18T02:04:43.149Z,91.40
2019-03-18T02:07:09.515Z,91.20
2019-03-18T02:09:38.780Z,91.10
2019-03-18T02:12:05.086Z,91.40
2019-03-18T02:14:31.326Z,91.20
2019-03-18T02:16:57.610Z,90.90
2019-03-18T02:19:26.955Z,90.90
2019-03-18T02:21:53.206Z,90.60
2019-03-18T02:24:19.478Z,90.90
2019-03-18T02:26:45.831Z,91.30
2019-03-18T02:29:12.085Z,90.90
2019-03-18T02:31:38.354Z,90.50
2019-03-18T02:34:04.747Z,90.80
2019-03-18T02:36:31.042Z,90.90
2019-03-18T02:38:57.294Z,91.20
2019-03-18T02:41:23.683Z,91.40
2019-03-18T02:43:53.098Z,91.30
2019-03-18T02:46:19.398Z,91.50
2019-03-18T02:48:48.894Z,91.50
2019-03-18T02:51:15.170Z,91.50
2019-03-18T02:53:47.872Z,91.40
2019-03-18T02:56:14.166Z,91.50
2019-03-18T02:58:40.423Z,91.70
2019-03-18T03:01:06.725Z,91.70
2019-03-18T03:03:39.197Z,91.40
2019-03-18T03:06:05.485Z,91.00
2019-03-18T03:08:34.983Z,91.10
2019-03-18T03:11:01.264Z,91.20
2019-03-18T03:13:27.499Z,91.60
2019-03-18T03:15:53.781Z,91.60
2019-03-18T03:18:20.015Z,91.60
2019-03-18T03:20:46.294Z,91.60
2019-03-18T03:23:12.585Z,91.60
2019-03-18T03:25:41.893Z,91.20
2019-03-18T03:28:08.165Z,91.20
2019-03-18T03:30:34.526Z,91.40
2019-03-18T03:33:04.049Z,91.40
2019-03-18T03:35:30.305Z,91.50
2019-03-18T03:37:56.574Z,91.40
2019-03-18T03:40:22.822Z,91.60
2019-03-18T03:42:49.067Z,91.90
2019-03-18T03:45:15.380Z,91.80
2019-03-18T03:47:41.636Z,91.90
2019-03-18T03:50:09.726Z,92.00
2019-03-18T03:52:36.049Z,91.80
2019-03-18T03:55:02.819Z,91.80
2019-03-18T03:57:29.086Z,92.10
2019-03-18T03:59:55.337Z,92.00
2019-03-18T04:02:21.682Z,91.80
2019-03-18T04:04:47.908Z,92.00
2019-03-18T04:07:14.171Z,92.10
2019-03-18T04:09:40.481Z,91.80
2019-03-18T04:12:06.754Z,91.30
2019-03-18T04:14:33.017Z,91.10
2019-03-18T04:17:03.017Z,91.10
2019-03-18T04:19:29.465Z,91.30
2019-03-18T04:21:55.767Z,91.10
2019-03-18T04:24:22.064Z,91.20
2019-03-18T04:26:48.320Z,91.00
2019-03-18T04:29:14.560Z,91.30
2019-03-18T04:31:40.832Z,91.20
2019-03-18T04:34:07.115Z,91.00
2019-03-18T04:36:36.593Z,90.60
2019-03-18T04:39:04.762Z,91.20
2019-03-18T04:41:31.048Z,91.00
2019-03-18T04:43:57.303Z,90.80
2019-03-18T04:46:23.575Z,90.40
2019-03-18T04:48:49.830Z,90.60
2019-03-18T04:51:16.119Z,90.70
2019-03-18T04:53:42.375Z,90.90
2019-03-18T04:56:08.628Z,90.90
2019-03-18T04:58:34.933Z,90.90
2019-03-18T05:01:01.229Z,91.40
2019-03-18T05:03:27.490Z,90.80
2019-03-18T05:05:53.764Z,90.90
2019-03-18T05:08:20.046Z,90.90
2019-03-18T05:10:46.320Z,91.00
2019-03-18T05:13:12.550Z,91.40
2019-03-18T05:15:38.884Z,91.60
2019-03-18T05:18:05.189Z,91.40
2019-03-18T05:20:31.411Z,91.10
2019-03-18T05:22:57.721Z,91.20
2019-03-18T05:25:27.054Z,91.30
2019-03-18T05:27:53.313Z,91.50
2019-03-18T05:30:26.712Z,91.10
2019-03-18T05:32:52.894Z,91.00
2019-03-18T05:35:23.232Z,91.10
2019-03-18T05:38:11.266Z,91.20
2019-03-18T05:40:43.711Z,91.90
2019-03-18T05:43:13.106Z,91.80
2019-03-18T05:45:42.591Z,91.80
2019-03-18T05:48:10.895Z,91.50
2019-03-18T05:50:37.286Z,91.40
2019-03-18T05:53:06.674Z,91.30
2019-03-18T05:55:36.575Z,91.50
2019-03-18T05:58:12.409Z,91.40
2019-03-18T06:00:41.825Z,91.50
2019-03-18T06:03:13.932Z,91.70
2019-03-18T06:05:40.257Z,91.70
2019-03-18T06:08:11.601Z,92.10
2019-03-18T06:10:59.481Z,92.40
2019-03-18T06:13:43.047Z,92.30
2019-03-18T06:16:12.411Z,92.30
2019-03-18T06:18:38.768Z,92.30
2019-03-18T06:21:06.063Z,92.20
2019-03-18T06:23:33.374Z,92.00
2019-03-18T06:26:05.730Z,92.30
2019-03-18T06:28:32.107Z,92.90
2019-03-18T06:31:01.507Z,93.10
2019-03-18T06:33:27.792Z,92.80
2019-03-18T06:35:56.310Z,92.40
2019-03-18T06:38:25.590Z,91.60
2019-03-18T06:40:51.859Z,92.30
2019-03-18T06:43:21.164Z,92.20
2019-03-18T06:45:50.653Z,92.00
2019-03-18T06:48:43.771Z,91.20
2019-03-18T06:51:21.614Z,90.90
2019-03-18T06:53:51.173Z,91.00
2019-03-18T06:56:23.451Z,91.20
2019-03-18T06:58:52.964Z,90.60
2019-03-18T07:01:47.076Z,89.00
2019-03-18T07:04:22.734Z,88.80
2019-03-18T07:06:49.040Z,88.20
2019-03-18T07:09:18.327Z,87.30
2019-03-18T07:11:45.680Z,86.60
2019-03-18T07:14:11.935Z,86.70
2019-03-18T07:16:44.371Z,87.90
2019-03-18T07:19:10.663Z,82.20
2019-03-18T07:21:39.983Z,71.20
2019-03-18T07:24:12.254Z,61.50
2019-03-18T07:26:38.607Z,56.10
2019-03-18T07:29:07.983Z,54.10
2019-03-18T07:31:43.698Z,51.90
2019-03-18T07:34:09.939Z,50.10
2019-03-18T07:36:36.206Z,50.50
2019-03-18T07:39:08.705Z,52.50
2019-03-18T07:41:37.043Z,53.00
2019-03-18T07:44:08.564Z,51.80
2019-03-18T07:46:34.959Z,50.70
2019-03-18T07:49:04.368Z,50.20
2019-03-18T07:51:30.652Z,50.50
2019-03-18T07:53:56.919Z,49.50
2019-03-18T07:56:23.198Z,46.20
2019-03-18T07:58:49.486Z,44.40
2019-03-18T08:01:18.862Z,44.00
2019-03-18T08:03:45.182Z,43.10
2019-03-18T08:06:11.473Z,41.30
2019-03-18T08:08:37.833Z,40.10
2019-03-18T08:11:04.197Z,39.30
2019-03-18T08:13:32.468Z,37.60
2019-03-18T08:16:04.522Z,37.80
2019-03-18T08:18:42.488Z,39.20
2019-03-18T08:20:58.933Z,39.30
2019-03-18T08:23:25.198Z,38.40
2019-03-18T08:25:51.457Z,37.40
2019-03-18T08:28:17.726Z,35.80
2019-03-18T08:30:47.288Z,35.60
2019-03-18T08:33:16.651Z,36.00
2019-03-18T08:35:42.910Z,34.50
2019-03-18T08:38:09.164Z,36.10
2019-03-18T08:40:38.479Z,36.10
2019-03-18T08:43:04.746Z,36.10
2019-03-18T08:45:31.097Z,36.40
2019-03-18T08:47:57.355Z,36.60
2019-03-18T08:50:23.618Z,37.00
2019-03-18T08:52:49.894Z,35.90
2019-03-18T08:55:17.141Z,35.90
2019-03-18T08:57:46.491Z,37.90
2019-03-18T09:00:13.985Z,36.10
2019-03-18T09:02:40.226Z,37.10
2019-03-18T09:05:07.591Z,37.20
2019-03-18T09:07:33.892Z,36.40
2019-03-18T09:10:00.179Z,35.30
2019-03-18T09:12:26.510Z,36.50
2019-03-18T09:14:55.394Z,38.80
2019-03-18T09:17:25.387Z,39.20
2019-03-18T09:19:51.642Z,37.60
2019-03-18T09:22:17.898Z,36.50
2019-03-18T09:24:44.182Z,39.60
2019-03-18T09:27:10.426Z,39.80
2019-03-18T09:29:42.526Z,39.20
2019-03-18T09:32:12.095Z,40.50
2019-03-18T09:34:48.399Z,42.50
2019-03-18T09:37:14.697Z,42.40
2019-03-18T09:39:40.965Z,41.50
2019-03-18T09:42:10.417Z,42.40
2019-03-18T09:44:37.670Z,43.80
2019-03-18T09:47:13.475Z,44.30
2019-03-18T09:49:41.718Z,45.10
2019-03-18T09:52:08.058Z,46.60
2019-03-18T09:54:34.329Z,50.10
2019-03-18T09:57:26.397Z,53.40
2019-03-18T09:59:50.718Z,54.70
2019-03-18T10:02:30.434Z,55.80
2019-03-18T10:04:56.890Z,56.70
2019-03-18T10:07:29.311Z,55.40
2019-03-18T10:10:06.382Z,55.30
2019-03-18T10:12:38.782Z,53.30
2019-03-18T10:15:19.635Z,54.20
2019-03-18T10:17:48.045Z,56.00
2019-03-18T10:20:16.429Z,58.70
2019-03-18T10:22:43.407Z,60.70
2019-03-18T10:25:13.003Z,65.10
2019-03-18T10:27:45.117Z,67.90
2019-03-18T10:33:52.745Z,72.00
2019-03-18T10:36:26.390Z,74.20
2019-03-18T10:38:53.971Z,75.60
2019-03-18T10:41:26.432Z,77.10
2019-03-18T10:44:08.228Z,79.50
2019-03-18T10:46:40.717Z,71.00
2019-03-18T10:49:07.016Z,66.40
2019-03-18T10:52:00.322Z,67.40
2019-03-18T10:54:40.845Z,62.30
2019-03-18T10:57:13.003Z,59.40
2019-03-18T10:59:39.337Z,59.30
2019-03-18T11:02:36.882Z,59.70
2019-03-18T11:05:04.457Z,58.00
2019-03-18T11:07:30.765Z,57.80
2019-03-18T11:09:57.117Z,55.40
2019-03-18T11:12:33.030Z,56.40
2019-03-18T11:14:59.590Z,57.30
2019-03-18T11:17:44.571Z,59.40
2019-03-18T11:20:15.481Z,60.50
2019-03-18T11:22:41.996Z,63.00
2019-03-18T11:25:09.735Z,62.10
2019-03-18T11:27:36.365Z,62.40
2019-03-18T11:30:12.971Z,65.70
2019-03-18T11:32:42.495Z,64.50
2019-03-18T11:35:11.886Z,59.60
2019-03-18T11:37:56.895Z,57.60
2019-03-18T11:40:24.262Z,58.70
2019-03-18T11:43:02.107Z,58.40
2019-03-18T11:45:37.513Z,56.60
2019-03-18T11:48:06.540Z,54.80
2019-03-18T11:50:44.890Z,53.60
2019-03-18T11:53:17.473Z,53.90
2019-03-18T11:55:46.839Z,54.80
2019-03-18T11:58:16.317Z,55.30
2019-03-18T12:01:02.944Z,55.70
2019-03-18T12:03:29.276Z,56.10
2019-03-18T12:06:09.976Z,58.60
2019-03-18T12:08:40.536Z,56.70
2019-03-18T12:11:06.792Z,54.90
2019-03-18T12:14:01.356Z,53.30
2019-03-18T12:16:54.590Z,49.80
2019-03-18T12:19:23.321Z,46.90
2019-03-18T12:21:52.856Z,51.20
2019-03-18T12:24:32.323Z,49.00
2019-03-18T12:27:01.820Z,53.00
2019-03-18T12:29:34.022Z,52.80
2019-03-18T12:32:00.303Z,52.10
2019-03-18T12:34:28.657Z,52.10
2019-03-18T12:37:14.338Z,51.20
2019-03-18T12:39:59.231Z,51.80
2019-03-18T12:42:26.774Z,53.10
2019-03-18T12:44:56.170Z,52.30
2019-03-18T12:47:22.603Z,49.30
2019-03-18T12:49:49.125Z,49.90
2019-03-18T12:52:15.444Z,49.80
2019-03-18T12:54:47.848Z,49.20
2019-03-18T12:57:14.135Z,50.20
2019-03-18T12:59:43.577Z,49.10
2019-03-18T13:02:16.269Z,51.40
2019-03-18T13:04:43.024Z,51.00
2019-03-18T13:07:09.496Z,49.90
2019-03-18T13:09:35.907Z,49.60
2019-03-18T13:12:02.176Z,50.80
2019-03-18T13:14:28.722Z,50.20
2019-03-18T13:16:55.058Z,49.40
2019-03-18T13:19:21.389Z,49.90
2019-03-18T13:21:47.642Z,48.20
2019-03-18T13:24:20.107Z,49.50
2019-03-18T13:26:49.486Z,52.10
2019-03-18T13:29:38.709Z,50.80
2019-03-18T13:32:10.844Z,49.50
2019-03-18T13:34:43.220Z,49.10
2019-03-18T13:37:15.922Z,46.50
2019-03-18T13:39:53.583Z,46.80
2019-03-18T13:42:29.300Z,46.20
2019-03-18T13:44:58.847Z,46.70
2019-03-18T13:47:28.375Z,46.70
2019-03-18T13:49:54.778Z,48.30
2019-03-18T13:52:21.056Z,48.30
2019-03-18T13:54:49.423Z,47.10
2019-03-18T13:57:49.702Z,48.00
2019-03-18T14:00:30.941Z,47.40
2019-03-18T14:02:56.336Z,48.30
2019-03-18T14:05:35.849Z,48.50
2019-03-18T14:08:03.233Z,49.10
2019-03-18T14:10:42.659Z,48.80
2019-03-18T14:13:12.103Z,48.30
2019-03-18T14:15:53.700Z,47.30
2019-03-18T14:18:23.146Z,47.80
2019-03-18T14:20:49.384Z,47.60
2019-03-18T14:23:25.005Z,47.00
2019-03-18T14:25:54.515Z,47.50
2019-03-18T14:28:26.880Z,48.00
2019-03-18T14:31:11.448Z,48.40
2019-03-18T14:33:37.902Z,48.10
2019-03-18T14:36:04.287Z,48.10
2019-03-18T14:38:41.448Z,48.10
2019-03-18T14:41:10.797Z,47.20
2019-03-18T14:43:40.252Z,46.70
2019-03-18T14:46:12.809Z,46.20
2019-03-18T14:48:42.192Z,46.20
2019-03-18T14:51:19.543Z,44.00
2019-03-18T14:53:45.907Z,44.20
2019-03-18T14:56:15.442Z,44.40
2019-03-18T14:58:50.737Z,45.70
2019-03-18T15:01:20.109Z,46.30
2019-03-18T15:03:46.444Z,45.20
2019-03-18T15:06:22.224Z,45.40
2019-03-18T15:08:48.623Z,45.70
2019-03-18T15:11:15.005Z,45.70
2019-03-18T15:13:51.386Z,45.20
2019-03-18T15:16:17.513Z,45.30
2019-03-18T15:18:43.800Z,46.40
2019-03-18T15:21:58.042Z,45.40
2019-03-18T15:24:22.533Z,46.00
2019-03-18T15:26:54.771Z,46.50
2019-03-18T15:29:31.934Z,46.60
2019-03-18T15:31:58.173Z,46.90
2019-03-18T15:34:24.435Z,46.40
2019-03-18T15:36:50.735Z,47.60
2019-03-18T15:39:19.010Z,46.20
2019-03-18T15:41:45.387Z,44.90
2019-03-18T15:44:11.771Z,46.30
2019-03-18T15:46:40.097Z,44.70
2019-03-18T15:49:06.436Z,44.60
2019-03-18T15:51:35.853Z,43.80
2019-03-18T15:54:04.140Z,43.30
2019-03-18T15:56:33.597Z,42.60
2019-03-18T15:58:59.863Z,43.80
2019-03-18T16:01:26.135Z,44.00
2019-03-18T16:03:52.390Z,44.80
2019-03-18T16:06:20.881Z,45.70
2019-03-18T16:08:47.135Z,46.20
2019-03-18T16:11:13.428Z,46.10
2019-03-18T16:13:39.778Z,46.20
2019-03-18T16:16:06.132Z,48.50
2019-03-18T16:18:32.456Z,46.50
2019-03-18T16:20:58.721Z,47.50
2019-03-18T16:23:25.019Z,47.70
2019-03-18T16:25:51.420Z,47.00
2019-03-18T16:28:17.707Z,46.00
2019-03-18T16:30:44.113Z,46.60
2019-03-18T16:33:11.437Z,48.40
2019-03-18T16:35:37.724Z,48.10
2019-03-18T16:38:04.018Z,47.90
2019-03-18T16:40:34.740Z,47.40
2019-03-18T16:43:01.211Z,47.40
2019-03-18T16:45:42.942Z,48.40
2019-03-18T16:48:30.764Z,50.20
2019-03-18T16:51:00.276Z,50.60
2019-03-18T16:53:28.518Z,51.20
2019-03-18T16:56:00.731Z,50.70
2019-03-18T16:58:26.994Z,52.10
2019-03-18T17:00:56.420Z,53.20
2019-03-18T17:03:25.830Z,53.00
2019-03-18T17:05:54.183Z,53.00
2019-03-18T17:08:28.002Z,51.70
2019-03-18T17:11:01.191Z,52.80
2019-03-18T17:13:30.742Z,51.90
2019-03-18T17:16:34.070Z,53.10
2019-03-18T17:19:03.597Z,53.80
2019-03-18T17:21:35.924Z,54.10
2019-03-18T17:24:17.603Z,55.10
2019-03-18T17:26:47.436Z,56.60
2019-03-18T17:29:15.010Z,57.70
2019-03-18T17:32:03.982Z,58.30
2019-03-18T17:34:34.282Z,59.10
2019-03-18T17:37:09.923Z,59.70
2019-03-18T17:39:45.537Z,61.10
2019-03-18T17:42:17.844Z,61.20
2019-03-18T17:44:47.251Z,60.70
2019-03-18T17:47:16.854Z,61.30
2019-03-18T17:49:47.170Z,61.00
2019-03-18T17:52:13.559Z,61.80
2019-03-18T17:54:40.035Z,61.80
2019-03-18T17:57:15.852Z,61.30
2019-03-18T17:59:48.523Z,61.50
2019-03-18T18:02:17.976Z,61.60
2019-03-18T18:04:44.367Z,62.40
2019-03-18T18:07:41.608Z,62.60
2019-03-18T18:10:21.126Z,63.90
2019-03-18T18:13:20.201Z,64.40
2019-03-18T18:15:46.578Z,65.30
2019-03-18T18:18:12.999Z,64.60
2019-03-18T18:20:40.859Z,65.40
2019-03-18T18:23:14.443Z,66.60
2019-03-18T18:25:35.646Z,66.70
2019-03-18T18:28:05.110Z,66.70
2019-03-18T18:30:32.459Z,67.10
2019-03-18T18:32:58.790Z,68.40
2019-03-18T18:35:27.161Z,68.70
2019-03-18T18:37:53.433Z,69.90
2019-03-18T18:40:25.495Z,70.90
2019-03-18T18:42:51.830Z,71.30
2019-03-18T18:45:18.192Z,72.30
2019-03-18T18:47:44.542Z,72.70
2019-03-18T18:50:11.452Z,72.50
2019-03-18T18:52:37.730Z,72.80
2019-03-18T18:55:06.216Z,73.40
2019-03-18T18:57:32.757Z,73.30
2019-03-18T19:00:09.981Z,74.10
2019-03-18T19:02:36.243Z,75.00
2019-03-18T19:05:08.989Z,74.90
2019-03-18T19:07:35.276Z,75.00
2019-03-18T19:10:09.365Z,75.30
2019-03-18T19:12:35.771Z,75.70
2019-03-18T19:15:02.057Z,75.60
2019-03-18T19:17:28.338Z,76.00
2019-03-18T19:19:54.633Z,76.20
2019-03-18T19:22:20.932Z,77.10
2019-03-18T19:24:47.309Z,77.20
2019-03-18T19:27:13.604Z,77.50
2019-03-18T19:29:39.913Z,77.60
2019-03-18T19:32:06.281Z,78.20
2019-03-18T19:34:32.657Z,77.70
2019-03-18T19:36:59.073Z,79.50
2019-03-18T19:39:25.468Z,80.10
2019-03-18T19:41:54.734Z,81.10
2019-03-18T19:44:21.167Z,82.20
2019-03-18T19:46:47.588Z,82.50
2019-03-18T19:49:18.635Z,82.20
2019-03-18T19:51:52.290Z,81.50
2019-03-18T19:54:18.685Z,81.10
2019-03-18T19:56:48.027Z,81.10
2019-03-18T19:59:16.622Z,81.30
2019-03-18T20:01:42.880Z,81.30
2019-03-18T20:04:09.155Z,81.40
2019-03-18T20:06:35.433Z,82.80
2019-03-18T20:09:01.733Z,83.60
2019-03-18T20:11:28.014Z,84.30
2019-03-18T20:13:54.396Z,83.20
2019-03-18T20:16:20.645Z,82.50
2019-03-18T20:18:46.918Z,83.20
2019-03-18T20:21:13.211Z,82.70
2019-03-18T20:23:40.549Z,83.00
2019-03-18T20:26:06.871Z,82.80
2019-03-18T20:28:33.176Z,82.50
2019-03-18T20:30:59.433Z,83.00
2019-03-18T20:33:27.734Z,82.80
2019-03-18T20:35:53.998Z,84.40
2019-03-18T20:38:20.322Z,87.10
2019-03-18T20:40:46.719Z,88.60
2019-03-18T20:43:12.997Z,89.30
2019-03-18T20:45:39.482Z,89.30
2019-03-18T20:48:12.170Z,88.10
2019-03-18T20:50:38.461Z,87.30
2019-03-18T20:53:07.945Z,85.60
2019-03-18T20:55:40.363Z,84.80
2019-03-18T20:58:06.633Z,85.10
2019-03-18T21:00:35.054Z,85.50
2019-03-18T21:03:01.443Z,86.10
2019-03-18T21:05:27.721Z,87.40
2019-03-18T21:07:54.001Z,87.60
2019-03-18T21:10:23.414Z,88.10
2019-03-18T21:12:49.713Z,88.50
2019-03-18T21:15:22.057Z,88.30
2019-03-18T21:17:56.587Z,87.60
2019-03-18T21:20:41.561Z,87.50
2019-03-18T21:23:16.857Z,87.00
2019-03-18T21:25:43.121Z,86.90
2019-03-18T21:28:09.556Z,87.70
2019-03-18T21:30:36.001Z,88.80
2019-03-18T21:33:02.293Z,90.20
2019-03-18T21:35:28.640Z,90.70
2019-03-18T21:37:54.919Z,90.90
2019-03-18T21:40:21.216Z,91.20
2019-03-18T21:42:47.464Z,91.10
2019-03-18T21:45:16.659Z,90.70
2019-03-18T21:47:42.984Z,90.60
2019-03-18T21:50:10.256Z,90.30
2019-03-18T21:52:36.534Z,89.80
2019-03-18T21:55:03.628Z,89.40
2019-03-18T21:57:29.899Z,88.60
2019-03-18T21:59:57.562Z,88.60
2019-03-18T22:02:24.139Z,89.60
2019-03-18T22:04:50.417Z,90.80
2019-03-18T22:07:16.748Z,91.70
2019-03-18T22:09:43.005Z,91.40
2019-03-18T22:12:09.274Z,91.20
2019-03-18T22:14:38.729Z,90.80
2019-03-18T22:17:05.002Z,90.50
2019-03-18T22:19:31.279Z,90.60
2019-03-18T22:21:57.656Z,90.80
2019-03-18T22:24:23.937Z,91.00
2019-03-18T22:26:53.269Z,91.50
2019-03-18T22:29:19.574Z,91.40
2019-03-18T22:31:45.822Z,91.90
2019-03-18T22:34:12.086Z,91.90
2019-03-18T22:36:38.377Z,91.60
2019-03-18T22:39:06.383Z,91.20
2019-03-18T22:41:32.664Z,90.90
2019-03-18T22:43:58.930Z,90.80
2019-03-18T22:46:25.253Z,90.80
2019-03-18T22:48:51.544Z,91.80
2019-03-18T22:51:17.825Z,92.60
2019-03-18T22:53:44.154Z,93.20
2019-03-18T22:56:10.432Z,93.00
2019-03-18T22:58:36.709Z,92.10
2019-03-18T23:01:13.580Z,91.60
2019-03-18T23:03:39.867Z,91.00
2019-03-18T23:06:06.125Z,91.30
2019-03-18T23:08:32.413Z,91.80
2019-03-18T23:10:58.743Z,92.90
2019-03-18T23:13:25.007Z,93.20
2019-03-18T23:15:52.293Z,93.40
2019-03-18T23:18:18.605Z,93.00
2019-03-18T23:20:44.890Z,92.30
2019-03-18T23:23:11.170Z,92.20
2019-03-18T23:25:37.459Z,92.50
2019-03-18T23:28:03.731Z,92.80
2019-03-18T23:30:29.994Z,93.00
2019-03-18T23:32:56.309Z,93.00
2019-03-18T23:35:22.589Z,92.80
2019-03-18T23:37:48.861Z,93.30
2019-03-18T23:40:15.155Z,93.10
2019-03-18T23:42:41.430Z,92.80
2019-03-18T23:45:08.343Z,92.40
2019-03-18T23:47:34.665Z,91.70
2019-03-18T23:50:00.947Z,91.60
2019-03-18T23:52:27.253Z,91.80
2019-03-18T23:54:53.542Z,91.60
2019-03-18T23:57:19.842Z,91.20
2019-03-18T23:59:46.142Z,91.00
